Terminal Aerodrome Forecast
Issued by NWS Pittsburgh, PA

Current Version | Previous Version | Graphics & Text | Print | Product List | Glossary On
Versions: 1 2 3 4 5 6 7 8 9 10 11 12 13 14 15 16 17 18 19 20 21 22 23 24 25 26 27 28 29 30
000
FTUS41 KPBZ 172100 AAA
TAFPIT
TAF AMD
KPIT 172102Z 1721/1824 21012G22KT P6SM BKN050
     FM180000 23008KT P6SM OVC040
     FM180700 26009KT P6SM VCSH BKN020
     FM181200 26010G15KT 5SM -SHRA BKN020
     FM181800 28012G18KT P6SM VCSH BKN025=

USA.gov is the U.S. government's official web portal to all federal, state and local government web resources and services.